»·PEaware :: WAT352 KCRQ-KSNA

WAT352 :: KCRQ-KSNA

FLIGHT INFORMATION

Flight Status: Arrived
Operator:
Walker Air Transport
More flights by this operator :: More flights under this callsign
Pilot: Matthew M. (27032)
Aircraft: BEECH AIRCRAFT SUPER KING AIR 350
(B350)
More flights by this aircraft type
Origin: KCRQ McClellan-Palomar
United States
Destination: KSNA John Wayne-Orange Co
United States
More flights between these airports :: More routes between these airports
Route: +CWARD2 SLI
File this flight plan on PilotEdge
Remarks: TEC route SANP4R
Altitude:
(Current/Filed)
8,000ft
Speed:
(Current/Filed)
400kts
Departed: 01-Dec-20 11:34 AM
Arrived: 01-Dec-20 11:56 AM
Distance/Time
Traveled:
44nm/0:22
Distance/Time
To Go:
Arrived

Flight Plot

Page will automatically refresh every two minutes.

Flight plan parsing failed; only flown route is shown


Map Options




Map Legend


Flown Route
Filed Route
Departure Airport
Arrival Airport
Navaid (VOR, NDB)
Fix

Horizontal Profiles

Position Reports

Time Latitude Longitude Heading Altitude Ground
Speed
01-Dec-20 11:08 33.127182 -117.279809 78 305ft 0kts
01-Dec-20 11:09 33.127182 -117.279809 78 305ft 0kts
01-Dec-20 11:10 33.127182 -117.279809 78 305ft 0kts
01-Dec-20 11:11 33.127182 -117.279809 78 305ft 0kts
01-Dec-20 11:12 33.127182 -117.279809 78 305ft 0kts
01-Dec-20 11:13 33.127182 -117.279808 78 305ft 0kts
01-Dec-20 11:14 33.127182 -117.279808 78 305ft 0kts
01-Dec-20 11:14 33.127182 -117.279808 78 305ft 0kts
01-Dec-20 11:16 33.127182 -117.279808 78 305ft 0kts
01-Dec-20 11:16 33.127182 -117.279808 78 305ft 0kts
01-Dec-20 11:18 33.127182 -117.279808 78 305ft 0kts
01-Dec-20 11:18 33.127182 -117.279808 78 305ft 0kts
01-Dec-20 11:19 33.127182 -117.279808 78 305ft 0kts
01-Dec-20 11:20 33.127182 -117.279808 78 305ft 0kts
01-Dec-20 11:21 33.127182 -117.279808 78 305ft 0kts
01-Dec-20 11:22 33.127182 -117.279808 78 305ft 0kts
01-Dec-20 11:23 33.127182 -117.279808 78 305ft 0kts
01-Dec-20 11:24 33.127182 -117.279808 78 305ft 0kts
01-Dec-20 11:25 33.127624 -117.278764 78 305ft 13kts
01-Dec-20 11:26 33.128394 -117.274039 79 305ft 14kts
01-Dec-20 11:27 33.128630 -117.272689 65 305ft 0kts
01-Dec-20 11:28 33.128630 -117.272689 65 305ft 0kts
01-Dec-20 11:29 33.128630 -117.272689 65 305ft 0kts
01-Dec-20 11:30 33.128630 -117.272690 65 305ft 0kts
01-Dec-20 11:31 33.128630 -117.272689 65 305ft 0kts
01-Dec-20 11:32 33.128630 -117.272689 65 305ft 0kts
01-Dec-20 11:33 33.128903 -117.276182 259 305ft 84kts
01-Dec-20 11:34 33.119504 -117.318440 255 2385ft 139kts
01-Dec-20 11:35 33.113924 -117.367239 261 4466ft 157kts
01-Dec-20 11:36 33.105657 -117.421669 260 6474ft 172kts
01-Dec-20 11:37 33.097198 -117.481906 262 8043ft 210kts
01-Dec-20 11:38 33.085868 -117.561030 262 8086ft 264kts
01-Dec-20 11:39 33.074796 -117.646376 262 8003ft 261kts
01-Dec-20 11:40 33.074137 -117.731314 296 8002ft 259kts
01-Dec-20 11:41 33.125229 -117.792101 320 8003ft 265kts
01-Dec-20 11:42 33.181830 -117.849444 321 8014ft 267kts
01-Dec-20 11:43 33.251711 -117.876427 349 8021ft 267kts
01-Dec-20 11:44 33.324290 -117.894457 348 8041ft 266kts
01-Dec-20 11:45 33.396760 -117.914229 344 8054ft 266kts
01-Dec-20 11:46 33.467493 -117.939797 343 6769ft 261kts
01-Dec-20 11:47 33.536463 -117.964851 344 5271ft 259kts
01-Dec-20 11:48 33.601236 -117.988529 344 5016ft 231kts
01-Dec-20 11:49 33.663937 -118.004302 19 4630ft 236kts
01-Dec-20 11:50 33.716533 -117.967416 31 3107ft 203kts
01-Dec-20 11:51 33.751521 -117.929724 75 2050ft 160kts
01-Dec-20 11:52 33.747154 -117.881037 103 2034ft 166kts
01-Dec-20 11:53 33.728182 -117.832877 175 1717ft 176kts
01-Dec-20 11:54 33.693991 -117.857325 205 423ft 113kts
01-Dec-20 11:55 33.672982 -117.870578 207 61ft 30kts
01-Dec-20 11:56 33.669146 -117.871600 127 61ft 0kts
01-Dec-20 11:57 33.671450 -117.868585 35 61ft 15kts
01-Dec-20 11:58 33.671869 -117.867090 210 61ft 0kts
01-Dec-20 11:59 33.671869 -117.867090 211 61ft 0kts
01-Dec-20 12:00 33.671869 -117.867090 211 61ft 0kts
01-Dec-20 12:01 33.671869 -117.867090 211 61ft 0kts

Navigation Log

Ident Type
Flight plan parsing failed, navigation log unavailable